createdAt,value
2023-04-05T00:02:14.318Z,32.38
2023-04-05T00:04:50.562Z,32.20
2023-04-05T00:07:17.786Z,31.95
2023-04-05T00:09:44.643Z,31.55
2023-04-05T00:12:12.125Z,31.03
2023-04-05T00:14:39.074Z,31.01
2023-04-05T00:17:06.393Z,31.02
2023-04-05T00:19:34.114Z,30.72
2023-04-05T00:22:01.095Z,30.37
2023-04-05T00:24:29.612Z,30.37
2023-04-05T00:26:56.943Z,30.29
2023-04-05T00:29:23.874Z,30.27
2023-04-05T00:31:50.725Z,29.81
2023-04-05T00:34:17.815Z,29.41
2023-04-05T00:36:44.699Z,29.62
2023-04-05T00:39:11.456Z,28.75
2023-04-05T00:41:38.194Z,28.45
2023-04-05T00:44:06.264Z,28.07
2023-04-05T00:46:36.631Z,27.76
2023-04-05T00:49:04.796Z,27.96
2023-04-05T00:51:33.865Z,27.82
2023-04-05T00:54:01.548Z,27.46
2023-04-05T00:56:28.459Z,27.53
2023-04-05T00:58:56.029Z,27.48
2023-04-05T01:01:22.985Z,27.52
2023-04-05T01:03:54.048Z,27.24
2023-04-05T01:06:39.182Z,27.25
2023-04-05T01:09:33.719Z,27.33
2023-04-05T01:12:03.277Z,27.49
2023-04-05T01:14:29.995Z,27.35
2023-04-05T01:16:58.849Z,27.54
2023-04-05T01:19:29.776Z,26.98
2023-04-05T01:22:38.143Z,27.00
2023-04-05T01:25:14.852Z,27.15
2023-04-05T01:27:50.590Z,27.50
2023-04-05T01:30:21.728Z,27.24
2023-04-05T01:33:23.912Z,27.31
2023-04-05T01:36:15.756Z,27.56
2023-04-05T01:38:42.561Z,27.51
2023-04-05T01:41:09.349Z,27.88
2023-04-05T01:43:36.258Z,27.22
2023-04-05T01:46:03.139Z,27.36
2023-04-05T01:48:29.890Z,26.84
2023-04-05T01:50:56.791Z,26.85
2023-04-05T01:53:23.587Z,26.11
2023-04-05T01:55:50.415Z,26.36
2023-04-05T01:58:17.376Z,25.82
2023-04-05T02:00:44.626Z,25.68
2023-04-05T02:03:11.886Z,25.38
2023-04-05T02:05:38.990Z,25.64
2023-04-05T02:08:05.722Z,25.62
2023-04-05T02:10:32.451Z,25.54
2023-04-05T02:12:59.382Z,25.20
2023-04-05T02:15:26.120Z,25.34
2023-04-05T02:17:54.264Z,25.65
2023-04-05T02:20:21.862Z,25.56
2023-04-05T02:22:48.633Z,25.43
2023-04-05T02:25:15.667Z,25.55
2023-04-05T02:27:42.515Z,25.46
2023-04-05T02:30:10.589Z,25.30
2023-04-05T02:32:37.446Z,25.67
2023-04-05T02:35:04.428Z,26.12
2023-04-05T02:37:31.338Z,25.98
2023-04-05T02:39:58.285Z,25.68
2023-04-05T02:42:25.112Z,25.58
2023-04-05T02:44:52.790Z,25.43
2023-04-05T02:47:22.622Z,26.00
2023-04-05T02:49:49.438Z,25.83
2023-04-05T02:52:16.915Z,26.00
2023-04-05T02:54:44.347Z,25.83
2023-04-05T02:57:11.890Z,25.64
2023-04-05T02:59:38.911Z,25.82
2023-04-05T03:02:06.382Z,25.91
2023-04-05T03:04:34.661Z,25.77
2023-04-05T03:07:03.016Z,25.91
2023-04-05T03:09:33.623Z,26.20
2023-04-05T03:12:03.860Z,26.07
2023-04-05T03:14:31.732Z,26.33
2023-04-05T03:16:58.642Z,26.17
2023-04-05T03:19:26.391Z,26.28
2023-04-05T03:21:53.537Z,26.32
2023-04-05T03:24:20.795Z,26.11
2023-04-05T03:26:48.089Z,26.04
2023-04-05T03:29:15.760Z,26.33
2023-04-05T03:31:42.680Z,26.07
2023-04-05T03:34:09.560Z,26.31
2023-04-05T03:36:42.213Z,26.15
2023-04-05T03:39:13.010Z,26.56
2023-04-05T03:41:40.687Z,26.11
2023-04-05T03:44:08.232Z,25.90
2023-04-05T03:46:35.722Z,26.09
2023-04-05T03:49:02.909Z,26.50
2023-04-05T03:51:29.787Z,25.99
2023-04-05T03:53:56.616Z,25.59
2023-04-05T03:56:23.406Z,25.45
2023-04-05T03:58:50.211Z,25.39
2023-04-05T04:01:17.120Z,25.52
2023-04-05T04:03:43.882Z,25.38
2023-04-05T04:06:10.819Z,25.52
2023-04-05T04:08:37.809Z,25.32
2023-04-05T04:11:04.778Z,25.14
2023-04-05T04:13:31.558Z,25.18
2023-04-05T04:15:58.462Z,25.28
2023-04-05T04:18:25.403Z,25.18
2023-04-05T04:20:53.454Z,25.15
2023-04-05T04:23:21.262Z,25.02
2023-04-05T04:25:50.738Z,24.71
2023-04-05T04:28:19.587Z,24.89
2023-04-05T04:30:46.866Z,24.87
2023-04-05T04:33:13.645Z,24.80
2023-04-05T04:35:40.640Z,24.78
2023-04-05T04:38:08.547Z,25.15
2023-04-05T04:40:39.220Z,24.98
2023-04-05T04:43:19.109Z,24.62
2023-04-05T04:45:49.738Z,24.91
2023-04-05T04:48:16.953Z,24.35
2023-04-05T04:50:47.708Z,24.52
2023-04-05T04:53:17.485Z,24.59
2023-04-05T04:55:44.651Z,24.38
2023-04-05T04:58:13.030Z,24.01
2023-04-05T05:00:44.540Z,24.04
2023-04-05T05:03:11.787Z,23.55
2023-04-05T05:05:50.394Z,23.60
2023-04-05T05:08:19.568Z,23.56
2023-04-05T05:10:52.563Z,23.51
2023-04-05T05:13:19.807Z,23.52
2023-04-05T05:15:46.921Z,23.56
2023-04-05T05:18:13.800Z,23.61
2023-04-05T05:20:41.837Z,24.26
2023-04-05T05:23:08.822Z,24.96
2023-04-05T05:25:36.449Z,25.24
2023-04-05T05:28:04.110Z,25.17
2023-04-05T05:30:31.197Z,24.87
2023-04-05T05:32:58.699Z,25.02
2023-04-05T05:35:25.526Z,24.79
2023-04-05T05:37:52.754Z,24.86
2023-04-05T05:40:19.708Z,24.35
2023-04-05T05:42:46.473Z,24.34
2023-04-05T05:45:13.582Z,24.30
2023-04-05T05:47:40.747Z,24.04
2023-04-05T05:50:10.203Z,23.97
2023-04-05T05:52:37.102Z,23.93
2023-04-05T05:55:04.500Z,23.88
2023-04-05T05:57:31.963Z,23.80
2023-04-05T05:59:59.341Z,23.98
2023-04-05T06:02:26.427Z,23.77
2023-04-05T06:04:53.412Z,23.74
2023-04-05T06:07:20.214Z,23.76
2023-04-05T06:09:47.746Z,24.05
2023-04-05T06:12:14.566Z,23.76
2023-04-05T06:14:41.420Z,24.26
2023-04-05T06:17:08.269Z,23.57
2023-04-05T06:19:34.989Z,23.70
2023-04-05T06:22:01.801Z,23.74
2023-04-05T06:24:32.079Z,23.60
2023-04-05T06:26:59.407Z,23.53
2023-04-05T06:29:26.233Z,23.57
2023-04-05T06:31:53.486Z,23.72
2023-04-05T06:34:20.319Z,23.74
2023-04-05T06:36:47.590Z,23.59
2023-04-05T06:39:15.126Z,23.70
2023-04-05T06:41:41.873Z,23.55
2023-04-05T06:44:08.570Z,23.33
2023-04-05T06:46:35.742Z,23.37
2023-04-05T06:49:04.002Z,23.44
2023-04-05T06:51:31.599Z,23.00
2023-04-05T06:53:58.855Z,22.84
2023-04-05T06:56:25.647Z,22.53
2023-04-05T06:58:53.209Z,22.71
2023-04-05T07:01:20.304Z,22.33
2023-04-05T07:03:47.193Z,22.28
2023-04-05T07:06:14.404Z,22.63
2023-04-05T07:08:41.239Z,22.45
2023-04-05T07:11:08.078Z,22.09
2023-04-05T07:13:34.814Z,21.79
2023-04-05T07:16:02.391Z,21.96
2023-04-05T07:18:30.285Z,21.50
2023-04-05T07:21:00.917Z,21.85
2023-04-05T07:23:28.369Z,21.70
2023-04-05T07:25:55.769Z,20.95
2023-04-05T07:28:22.987Z,20.94
2023-04-05T07:30:50.124Z,20.68
2023-04-05T07:33:16.939Z,21.04
2023-04-05T07:35:43.728Z,20.58
2023-04-05T07:38:11.606Z,20.69
2023-04-05T07:40:38.443Z,19.68
2023-04-05T07:43:05.220Z,20.23
2023-04-05T07:45:32.209Z,20.30
2023-04-05T07:47:59.242Z,19.90
2023-04-05T07:50:27.101Z,20.20
2023-04-05T07:52:53.940Z,20.58
2023-04-05T07:55:20.782Z,20.60
2023-04-05T07:57:47.512Z,20.00
2023-04-05T08:00:15.740Z,20.21
2023-04-05T08:02:42.622Z,19.66
2023-04-05T08:05:09.782Z,20.02
2023-04-05T08:07:36.965Z,19.61
2023-04-05T08:10:05.041Z,19.21
2023-04-05T08:12:35.396Z,19.50
2023-04-05T08:15:03.566Z,19.34
2023-04-05T08:17:30.457Z,19.49
2023-04-05T08:19:57.388Z,19.49
2023-04-05T08:22:27.132Z,20.15
2023-04-05T08:24:53.933Z,20.18
2023-04-05T08:27:20.828Z,20.17
2023-04-05T08:29:47.690Z,19.45
2023-04-05T08:32:14.628Z,18.89
2023-04-05T08:34:42.048Z,18.79
2023-04-05T08:37:08.898Z,18.21
2023-04-05T08:39:36.255Z,18.24
2023-04-05T08:42:26.372Z,18.22
2023-04-05T08:44:53.196Z,18.78
2023-04-05T08:47:21.062Z,17.57
2023-04-05T08:49:49.062Z,17.56
2023-04-05T08:52:15.933Z,18.11
2023-04-05T08:54:42.923Z,18.25
2023-04-05T08:57:09.792Z,18.22
2023-04-05T08:59:38.658Z,17.46
2023-04-05T09:02:08.823Z,17.85
2023-04-05T09:04:38.529Z,17.09
2023-04-05T09:07:06.760Z,17.83
2023-04-05T09:09:35.121Z,16.81
2023-04-05T09:12:04.351Z,16.48
2023-04-05T09:14:31.467Z,16.47
2023-04-05T09:16:58.851Z,16.52
2023-04-05T09:19:25.903Z,16.44
2023-04-05T09:22:05.633Z,16.76
2023-04-05T09:24:42.370Z,16.41
2023-04-05T09:27:11.261Z,16.88
2023-04-05T09:29:39.215Z,16.80
2023-04-05T09:32:07.020Z,16.96
2023-04-05T09:34:39.576Z,17.50
2023-04-05T09:37:16.513Z,17.32
2023-04-05T09:39:43.670Z,17.08
2023-04-05T09:42:15.661Z,17.12
2023-04-05T09:44:55.181Z,16.87
2023-04-05T09:47:27.650Z,17.01
2023-04-05T09:49:54.688Z,16.25
2023-04-05T09:52:25.747Z,14.89
2023-04-05T09:54:55.690Z,14.97
2023-04-05T09:57:35.451Z,15.41
2023-04-05T10:00:02.206Z,16.21
2023-04-05T10:02:39.233Z,15.42
2023-04-05T10:05:14.060Z,15.13
2023-04-05T10:07:41.643Z,15.81
2023-04-05T10:10:09.712Z,15.31
2023-04-05T10:12:41.957Z,15.08
2023-04-05T10:15:09.356Z,15.81
2023-04-05T10:18:02.161Z,15.61
2023-04-05T10:20:28.982Z,15.50
2023-04-05T10:23:06.917Z,15.71
2023-04-05T10:25:53.194Z,16.39
2023-04-05T10:28:29.197Z,16.15
2023-04-05T10:31:21.039Z,15.52
2023-04-05T10:34:07.469Z,14.93
2023-04-05T10:37:01.147Z,15.15
2023-04-05T10:39:28.846Z,14.59
2023-04-05T10:42:22.768Z,14.62
2023-04-05T10:45:00.212Z,14.53
2023-04-05T10:47:31.924Z,15.14
2023-04-05T10:50:00.667Z,14.87
2023-04-05T10:52:27.594Z,15.51
2023-04-05T10:54:54.653Z,15.64
2023-04-05T10:57:21.638Z,15.53
2023-04-05T10:59:49.108Z,15.66
2023-04-05T11:02:16.065Z,15.09
2023-04-05T11:04:43.118Z,15.22
2023-04-05T11:07:17.479Z,15.20
2023-04-05T11:09:57.809Z,15.72
2023-04-05T11:12:47.006Z,15.46
2023-04-05T11:15:28.018Z,15.42
2023-04-05T11:18:07.773Z,14.61
2023-04-05T11:20:42.889Z,13.63
2023-04-05T11:23:14.992Z,13.43
2023-04-05T11:25:46.297Z,13.37
2023-04-05T11:28:33.323Z,13.93
2023-04-05T11:31:15.784Z,13.65
2023-04-05T11:33:42.850Z,13.76
2023-04-05T11:36:10.972Z,13.65
2023-04-05T11:38:38.088Z,14.10
2023-04-05T11:41:18.099Z,13.97
2023-04-05T11:43:48.312Z,14.06
2023-04-05T11:46:18.470Z,13.35
2023-04-05T11:48:51.748Z,13.22
2023-04-05T11:51:18.947Z,13.68
2023-04-05T11:53:48.696Z,12.86
2023-04-05T11:56:16.383Z,13.35
2023-04-05T11:58:43.121Z,13.38
2023-04-05T12:01:09.984Z,12.83
2023-04-05T12:03:37.197Z,13.17
2023-04-05T12:06:05.497Z,13.05
2023-04-05T12:08:42.687Z,12.38
2023-04-05T12:11:11.070Z,12.75
2023-04-05T12:13:37.801Z,13.22
2023-04-05T12:16:06.326Z,12.73
2023-04-05T12:18:34.405Z,12.44
2023-04-05T12:21:09.092Z,12.12
2023-04-05T12:23:37.399Z,12.00
2023-04-05T12:26:04.618Z,11.45
2023-04-05T12:28:53.705Z,11.59
2023-04-05T12:31:39.100Z,11.22
2023-04-05T12:34:06.247Z,11.87
2023-04-05T12:36:33.037Z,11.19
2023-04-05T12:39:01.372Z,10.73
2023-04-05T12:41:30.108Z,10.70
2023-04-05T12:44:04.761Z,10.60
2023-04-05T12:46:45.135Z,10.46
2023-04-05T12:49:12.949Z,10.58
2023-04-05T12:51:46.473Z,10.52
2023-04-05T12:54:14.648Z,10.19
2023-04-05T12:56:42.161Z,9.85
2023-04-05T12:59:09.139Z,9.76
2023-04-05T13:01:36.035Z,9.66
2023-04-05T13:04:15.546Z,9.44
2023-04-05T13:06:43.958Z,9.34
2023-04-05T13:09:10.864Z,9.29
2023-04-05T13:11:37.684Z,9.74
2023-04-05T13:14:04.540Z,10.29
2023-04-05T13:16:31.459Z,10.41
2023-04-05T13:18:58.230Z,11.48
2023-04-05T13:21:25.238Z,12.16
2023-04-05T13:23:52.124Z,12.42
2023-04-05T13:26:18.854Z,13.13
2023-04-05T13:28:46.055Z,14.01
2023-04-05T13:31:14.465Z,14.08
2023-04-05T13:33:42.511Z,14.88
2023-04-05T13:36:11.132Z,15.39
2023-04-05T13:38:38.191Z,16.42
2023-04-05T13:41:05.303Z,16.89
2023-04-05T13:43:32.163Z,17.09
2023-04-05T13:45:59.025Z,17.72
2023-04-05T13:48:25.980Z,18.02
2023-04-05T13:50:52.973Z,18.18
2023-04-05T13:53:19.704Z,18.48
2023-04-05T13:55:46.446Z,18.78
2023-04-05T13:58:14.533Z,19.34
2023-04-05T14:00:41.832Z,19.90
2023-04-05T14:03:08.985Z,20.45
2023-04-05T14:05:36.065Z,20.53
2023-04-05T14:08:02.907Z,20.70
2023-04-05T14:10:31.743Z,21.13
2023-04-05T14:12:58.620Z,21.67
2023-04-05T14:15:25.834Z,21.59
2023-04-05T14:17:52.639Z,21.64
2023-04-05T14:20:19.529Z,21.88
2023-04-05T14:22:46.310Z,22.35
2023-04-05T14:25:13.048Z,22.55
2023-04-05T14:27:42.606Z,22.59
2023-04-05T14:30:10.472Z,22.74
2023-04-05T14:32:37.278Z,23.36
2023-04-05T14:35:04.522Z,23.47
2023-04-05T14:37:31.355Z,23.76
2023-04-05T14:39:58.191Z,23.32
2023-04-05T14:42:34.096Z,23.58
2023-04-05T14:45:04.070Z,23.29
2023-04-05T14:47:31.130Z,23.41
2023-04-05T14:49:58.370Z,23.33
2023-04-05T14:52:25.139Z,23.13
2023-04-05T14:54:51.926Z,23.15
2023-04-05T14:57:18.665Z,23.36
2023-04-05T14:59:45.493Z,23.05
2023-04-05T15:02:12.331Z,23.54
2023-04-05T15:04:41.418Z,23.49
2023-04-05T15:07:08.154Z,23.18
2023-04-05T15:09:36.180Z,23.05
2023-04-05T15:12:03.071Z,23.50
2023-04-05T15:14:32.365Z,23.13
2023-04-05T15:16:59.637Z,23.20
2023-04-05T15:19:27.609Z,22.79
2023-04-05T15:21:54.963Z,23.34
2023-04-05T15:24:21.753Z,24.23
2023-04-05T15:26:48.538Z,23.95
2023-04-05T15:29:15.550Z,24.47
2023-04-05T15:31:42.986Z,24.62
2023-04-05T15:34:09.832Z,25.41
2023-04-05T15:36:36.773Z,25.38
2023-04-05T15:39:05.373Z,25.54
2023-04-05T15:41:33.223Z,25.68
2023-04-05T15:44:00.166Z,25.69
2023-04-05T15:46:28.717Z,26.48
2023-04-05T15:48:56.324Z,26.28
2023-04-05T15:51:23.202Z,26.52
2023-04-05T15:53:50.139Z,26.15
2023-04-05T15:56:16.913Z,26.56
2023-04-05T15:58:43.977Z,25.82
2023-04-05T16:01:11.073Z,25.12
2023-04-05T16:03:37.966Z,25.19
2023-04-05T16:06:04.898Z,24.84
2023-04-05T16:08:31.835Z,25.49
2023-04-05T16:10:58.619Z,24.94
2023-04-05T16:13:25.668Z,25.23
2023-04-05T16:15:52.583Z,24.90
2023-04-05T16:18:23.306Z,24.90
2023-04-05T16:20:50.151Z,25.19
2023-04-05T16:23:17.144Z,26.62
2023-04-05T16:25:43.897Z,25.79
2023-04-05T16:28:10.699Z,25.83
2023-04-05T16:30:37.553Z,26.18
2023-04-05T16:33:04.379Z,26.64
2023-04-05T16:35:32.552Z,26.65
2023-04-05T16:37:59.893Z,26.99
2023-04-05T16:40:27.965Z,28.33
2023-04-05T16:42:55.722Z,28.04
2023-04-05T16:45:22.685Z,28.10
2023-04-05T16:47:50.430Z,28.83
2023-04-05T16:50:17.305Z,28.69
2023-04-05T16:52:45.668Z,28.57
2023-04-05T16:55:12.640Z,28.22
2023-04-05T16:57:39.361Z,28.73
2023-04-05T17:00:06.662Z,28.32
2023-04-05T17:02:33.542Z,28.26
2023-04-05T17:05:00.572Z,28.32
2023-04-05T17:07:27.313Z,27.96
2023-04-05T17:09:54.027Z,28.05
2023-04-05T17:12:20.969Z,27.75
2023-04-05T17:14:47.697Z,28.38
2023-04-05T17:17:14.418Z,28.25
2023-04-05T17:19:41.559Z,27.89
2023-04-05T17:22:08.584Z,28.04
2023-04-05T17:24:36.295Z,28.74
2023-04-05T17:27:03.828Z,28.78
2023-04-05T17:29:30.576Z,28.11
2023-04-05T17:31:57.402Z,28.16
2023-04-05T17:34:24.233Z,28.32
2023-04-05T17:36:52.838Z,28.18
2023-04-05T17:39:19.643Z,28.58
2023-04-05T17:41:46.777Z,28.42
2023-04-05T17:44:14.475Z,28.24
2023-04-05T17:46:48.523Z,28.49
2023-04-05T17:49:21.112Z,28.18
2023-04-05T17:51:49.382Z,27.99
2023-04-05T17:54:16.484Z,28.47
2023-04-05T17:56:43.369Z,28.12
2023-04-05T17:59:10.378Z,27.98
2023-04-05T18:01:37.969Z,28.02
2023-04-05T18:04:06.034Z,28.17
2023-04-05T18:06:33.006Z,28.00
2023-04-05T18:09:00.204Z,28.21
2023-04-05T18:11:26.989Z,28.52
2023-04-05T18:13:53.850Z,28.73
2023-04-05T18:16:20.637Z,28.83
2023-04-05T18:18:47.582Z,28.59
2023-04-05T18:21:14.312Z,28.75
2023-04-05T18:23:41.363Z,28.76
2023-04-05T18:26:08.300Z,29.07
2023-04-05T18:28:35.178Z,29.22
2023-04-05T18:31:02.105Z,29.26
2023-04-05T18:33:28.933Z,29.26
2023-04-05T18:35:55.883Z,29.40
2023-04-05T18:38:22.743Z,29.70
2023-04-05T18:40:50.802Z,29.57
2023-04-05T18:43:17.903Z,29.62
2023-04-05T18:45:44.726Z,29.97
2023-04-05T18:48:12.004Z,30.00
2023-04-05T18:50:38.784Z,30.33
2023-04-05T18:53:07.034Z,30.24
2023-04-05T18:55:33.993Z,30.17
2023-04-05T18:58:00.865Z,30.10
2023-04-05T19:00:27.696Z,30.00
2023-04-05T19:02:54.529Z,29.96
2023-04-05T19:05:21.421Z,30.17
2023-04-05T19:07:48.156Z,30.16
2023-04-05T19:10:15.083Z,30.47
2023-04-05T19:12:41.802Z,30.62
2023-04-05T19:15:09.002Z,30.95
2023-04-05T19:17:35.845Z,30.79
2023-04-05T19:20:02.758Z,31.02
2023-04-05T19:22:29.729Z,31.26
2023-04-05T19:24:56.538Z,31.20
2023-04-05T19:27:23.269Z,31.64
2023-04-05T19:29:50.029Z,31.40
2023-04-05T19:32:17.019Z,31.57
2023-04-05T19:34:43.820Z,32.03
2023-04-05T19:37:10.639Z,31.95
2023-04-05T19:39:37.511Z,32.46
2023-04-05T19:42:05.452Z,32.47
2023-04-05T19:44:58.122Z,32.79
2023-04-05T19:47:25.499Z,32.99
2023-04-05T19:49:57.406Z,33.32
2023-04-05T19:52:48.800Z,33.50
2023-04-05T19:55:34.600Z,33.48
2023-04-05T19:58:02.571Z,33.29
2023-04-05T20:00:42.960Z,33.61
2023-04-05T20:03:39.566Z,33.90
2023-04-05T20:06:06.502Z,34.06
2023-04-05T20:08:35.634Z,34.31
2023-04-05T20:11:11.451Z,34.51
2023-04-05T20:13:41.573Z,35.02
2023-04-05T20:16:09.605Z,34.65
2023-04-05T20:18:36.466Z,35.04
2023-04-05T20:21:03.199Z,35.09
2023-04-05T20:23:29.988Z,35.39
2023-04-05T20:25:56.818Z,35.65
2023-04-05T20:28:34.028Z,35.75
2023-04-05T20:31:08.344Z,35.83
2023-04-05T20:33:54.182Z,36.47
2023-04-05T20:36:34.334Z,36.38
2023-04-05T20:39:01.932Z,36.68
2023-04-05T20:41:29.004Z,36.46
2023-04-05T20:43:56.636Z,36.82
2023-04-05T20:46:23.690Z,37.33
2023-04-05T20:48:51.186Z,37.46
2023-04-05T20:51:18.017Z,37.49
2023-04-05T20:53:44.758Z,37.82
2023-04-05T20:56:12.766Z,37.89
2023-04-05T20:58:40.401Z,37.54
2023-04-05T21:01:07.669Z,38.02
2023-04-05T21:03:36.020Z,38.01
2023-04-05T21:06:03.531Z,37.89
2023-04-05T21:08:30.566Z,38.08
2023-04-05T21:10:58.344Z,38.28
2023-04-05T21:13:27.984Z,38.49
2023-04-05T21:15:55.697Z,38.59
2023-04-05T21:18:23.081Z,38.45
2023-04-05T21:20:53.310Z,38.77
2023-04-05T21:23:21.796Z,38.86
2023-04-05T21:25:48.608Z,38.67
2023-04-05T21:28:16.560Z,39.03
2023-04-05T21:30:43.676Z,39.20
2023-04-05T21:33:10.878Z,38.89
2023-04-05T21:35:38.185Z,39.49
2023-04-05T21:38:05.061Z,39.70
2023-04-05T21:40:32.061Z,40.10
2023-04-05T21:42:59.042Z,39.95
2023-04-05T21:45:25.852Z,40.07
2023-04-05T21:47:52.969Z,40.02
2023-04-05T21:50:19.839Z,40.29
2023-04-05T21:52:46.635Z,40.40
2023-04-05T21:55:13.366Z,40.00
2023-04-05T21:57:40.241Z,40.10
2023-04-05T22:00:11.086Z,40.00
2023-04-05T22:02:38.802Z,39.90
2023-04-05T22:05:10.462Z,39.64
2023-04-05T22:07:37.977Z,39.41
2023-04-05T22:10:05.264Z,39.83
2023-04-05T22:12:32.154Z,39.67
2023-04-05T22:14:58.956Z,39.64
2023-04-05T22:17:25.711Z,39.79
2023-04-05T22:19:52.655Z,39.75
2023-04-05T22:22:19.439Z,39.85
2023-04-05T22:24:46.424Z,39.78
2023-04-05T22:27:13.250Z,39.93
2023-04-05T22:29:40.513Z,40.12
2023-04-05T22:32:07.422Z,39.99
2023-04-05T22:34:34.498Z,39.83
2023-04-05T22:37:01.576Z,40.30
2023-04-05T22:39:28.453Z,39.90
2023-04-05T22:41:56.312Z,40.20
2023-04-05T22:44:24.560Z,39.92
2023-04-05T22:46:51.470Z,39.74
2023-04-05T22:49:18.506Z,39.97
2023-04-05T22:51:45.284Z,40.07
2023-04-05T22:54:12.277Z,40.29
2023-04-05T22:56:39.062Z,40.42
2023-04-05T22:59:05.988Z,40.71
2023-04-05T23:01:32.971Z,40.67
2023-04-05T23:03:59.715Z,40.37
2023-04-05T23:06:26.492Z,40.20
2023-04-05T23:08:53.430Z,40.06
2023-04-05T23:11:20.172Z,40.12
2023-04-05T23:13:47.385Z,40.21
2023-04-05T23:16:14.307Z,40.23
2023-04-05T23:18:41.383Z,40.05
2023-04-05T23:21:08.260Z,39.92
2023-04-05T23:23:35.318Z,39.70
2023-04-05T23:26:02.146Z,39.69
2023-04-05T23:28:28.921Z,39.94
2023-04-05T23:30:56.085Z,39.85
2023-04-05T23:33:22.917Z,40.41
2023-04-05T23:35:49.892Z,40.59
2023-04-05T23:38:16.771Z,40.49
2023-04-05T23:40:43.493Z,40.76
2023-04-05T23:43:11.023Z,41.34
2023-04-05T23:45:37.901Z,41.29
2023-04-05T23:48:05.164Z,41.78
2023-04-05T23:50:32.016Z,41.84
2023-04-05T23:53:00.435Z,42.18
2023-04-05T23:55:27.297Z,42.40
2023-04-05T23:57:57.836Z,42.61
